sensor_id;sensor_type;location;lat;lon;timestamp;temperature;humidity
56542;DHT22;42438;53.174;6.730;2023-03-16T00:02:17;2.60;99.90
56542;DHT22;42438;53.174;6.730;2023-03-16T00:04:48;3.20;99.90
56542;DHT22;42438;53.174;6.730;2023-03-16T00:07:18;2.60;99.90
56542;DHT22;42438;53.174;6.730;2023-03-16T00:09:51;2.90;99.90
56542;DHT22;42438;53.174;6.730;2023-03-16T00:12:21;3.40;99.90
56542;DHT22;42438;53.174;6.730;2023-03-16T00:14:52;3.00;99.90
56542;DHT22;42438;53.174;6.730;2023-03-16T00:17:23;3.00;99.90
56542;DHT22;42438;53.174;6.730;2023-03-16T00:19:56;3.00;99.90
56542;DHT22;42438;53.174;6.730;2023-03-16T00:22:28;3.40;99.90
56542;DHT22;42438;53.174;6.730;2023-03-16T00:25:00;3.20;99.90
56542;DHT22;42438;53.174;6.730;2023-03-16T00:27:31;3.30;99.90
56542;DHT22;42438;53.174;6.730;2023-03-16T00:30:01;3.20;99.90
56542;DHT22;42438;53.174;6.730;2023-03-16T00:32:35;2.70;99.90
56542;DHT22;42438;53.174;6.730;2023-03-16T00:35:06;3.20;99.90
56542;DHT22;42438;53.174;6.730;2023-03-16T00:37:37;2.70;99.90
56542;DHT22;42438;53.174;6.730;2023-03-16T00:40:09;3.00;99.90
56542;DHT22;42438;53.174;6.730;2023-03-16T00:42:41;2.60;99.90
56542;DHT22;42438;53.174;6.730;2023-03-16T00:45:12;3.00;99.90
56542;DHT22;42438;53.174;6.730;2023-03-16T00:47:42;2.70;99.90
56542;DHT22;42438;53.174;6.730;2023-03-16T00:50:13;3.10;99.90
56542;DHT22;42438;53.174;6.730;2023-03-16T00:52:45;2.60;99.90
56542;DHT22;42438;53.174;6.730;2023-03-16T00:55:15;3.60;99.90
56542;DHT22;42438;53.174;6.730;2023-03-16T00:57:46;2.80;99.90
56542;DHT22;42438;53.174;6.730;2023-03-16T01:00:17;2.90;99.90
56542;DHT22;42438;53.174;6.730;2023-03-16T01:02:50;2.80;99.90
56542;DHT22;42438;53.174;6.730;2023-03-16T01:05:20;3.00;99.90
56542;DHT22;42438;53.174;6.730;2023-03-16T01:07:52;3.00;99.90
56542;DHT22;42438;53.174;6.730;2023-03-16T01:10:22;2.90;99.90
56542;DHT22;42438;53.174;6.730;2023-03-16T01:12:54;2.60;99.90
56542;DHT22;42438;53.174;6.730;2023-03-16T01:15:25;2.90;99.90
56542;DHT22;42438;53.174;6.730;2023-03-16T01:17:56;2.90;99.90
56542;DHT22;42438;53.174;6.730;2023-03-16T01:20:27;2.90;99.90
56542;DHT22;42438;53.174;6.730;2023-03-16T01:22:57;2.80;99.90
56542;DHT22;42438;53.174;6.730;2023-03-16T01:25:28;3.30;99.90
56542;DHT22;42438;53.174;6.730;2023-03-16T01:27:59;3.20;99.90
56542;DHT22;42438;53.174;6.730;2023-03-16T01:30:31;2.70;99.90
56542;DHT22;42438;53.174;6.730;2023-03-16T01:33:01;3.10;99.90
56542;DHT22;42438;53.174;6.730;2023-03-16T01:35:32;2.80;99.90
56542;DHT22;42438;53.174;6.730;2023-03-16T01:38:03;3.20;99.90
56542;DHT22;42438;53.174;6.730;2023-03-16T01:40:34;3.20;99.90
56542;DHT22;42438;53.174;6.730;2023-03-16T01:43:06;3.10;99.90
56542;DHT22;42438;53.174;6.730;2023-03-16T01:48:45;2.80;99.90
56542;DHT22;42438;53.174;6.730;2023-03-16T01:51:58;3.00;99.90
56542;DHT22;42438;53.174;6.730;2023-03-16T01:57:11;3.60;99.90
56542;DHT22;42438;53.174;6.730;2023-03-16T02:00:10;2.70;99.90
56542;DHT22;42438;53.174;6.730;2023-03-16T02:03:03;2.90;99.90
56542;DHT22;42438;53.174;6.730;2023-03-16T02:05:54;2.70;99.90
56542;DHT22;42438;53.174;6.730;2023-03-16T02:08:26;3.00;99.90
56542;DHT22;42438;53.174;6.730;2023-03-16T02:10:57;3.10;99.90
56542;DHT22;42438;53.174;6.730;2023-03-16T02:13:28;3.00;99.90
56542;DHT22;42438;53.174;6.730;2023-03-16T02:16:06;3.20;99.90
56542;DHT22;42438;53.174;6.730;2023-03-16T02:18:37;3.10;99.90
56542;DHT22;42438;53.174;6.730;2023-03-16T02:21:32;3.10;99.90
56542;DHT22;42438;53.174;6.730;2023-03-16T02:24:04;2.90;99.90
56542;DHT22;42438;53.174;6.730;2023-03-16T02:26:45;3.30;99.90
56542;DHT22;42438;53.174;6.730;2023-03-16T02:31:59;3.00;99.90
56542;DHT22;42438;53.174;6.730;2023-03-16T02:34:32;3.30;99.90
56542;DHT22;42438;53.174;6.730;2023-03-16T02:37:03;4.00;99.90
56542;DHT22;42438;53.174;6.730;2023-03-16T02:39:35;3.40;99.90
56542;DHT22;42438;53.174;6.730;2023-03-16T02:42:14;3.10;99.90
56542;DHT22;42438;53.174;6.730;2023-03-16T02:44:51;3.00;99.90
56542;DHT22;42438;53.174;6.730;2023-03-16T02:47:35;3.10;99.90
56542;DHT22;42438;53.174;6.730;2023-03-16T02:50:09;3.00;99.90
56542;DHT22;42438;53.174;6.730;2023-03-16T02:52:40;3.30;99.90
56542;DHT22;42438;53.174;6.730;2023-03-16T02:55:11;3.10;99.90
56542;DHT22;42438;53.174;6.730;2023-03-16T02:57:41;3.80;99.90
56542;DHT22;42438;53.174;6.730;2023-03-16T03:00:13;3.20;99.90
56542;DHT22;42438;53.174;6.730;2023-03-16T03:02:48;2.60;99.90
56542;DHT22;42438;53.174;6.730;2023-03-16T03:05:20;3.20;99.90
56542;DHT22;42438;53.174;6.730;2023-03-16T03:07:51;3.20;99.90
56542;DHT22;42438;53.174;6.730;2023-03-16T03:10:21;2.90;99.90
56542;DHT22;42438;53.174;6.730;2023-03-16T03:12:52;3.30;99.90
56542;DHT22;42438;53.174;6.730;2023-03-16T03:15:23;3.10;99.90
56542;DHT22;42438;53.174;6.730;2023-03-16T03:17:54;3.20;99.90
56542;DHT22;42438;53.174;6.730;2023-03-16T03:20:24;3.30;99.90
56542;DHT22;42438;53.174;6.730;2023-03-16T03:22:55;3.00;99.90
56542;DHT22;42438;53.174;6.730;2023-03-16T03:25:26;3.20;99.90
56542;DHT22;42438;53.174;6.730;2023-03-16T03:27:57;3.40;99.90
56542;DHT22;42438;53.174;6.730;2023-03-16T03:30:29;3.70;99.90
56542;DHT22;42438;53.174;6.730;2023-03-16T03:33:00;3.20;99.90
56542;DHT22;42438;53.174;6.730;2023-03-16T03:35:31;3.20;99.90
56542;DHT22;42438;53.174;6.730;2023-03-16T03:38:01;3.10;99.90
56542;DHT22;42438;53.174;6.730;2023-03-16T03:40:32;4.10;99.90
56542;DHT22;42438;53.174;6.730;2023-03-16T03:43:04;3.60;99.90
56542;DHT22;42438;53.174;6.730;2023-03-16T03:45:34;3.20;99.90
56542;DHT22;42438;53.174;6.730;2023-03-16T03:48:05;3.20;99.90
56542;DHT22;42438;53.174;6.730;2023-03-16T03:50:36;3.30;99.90
56542;DHT22;42438;53.174;6.730;2023-03-16T03:53:08;3.40;99.90
56542;DHT22;42438;53.174;6.730;2023-03-16T03:55:38;3.30;99.90
56542;DHT22;42438;53.174;6.730;2023-03-16T03:58:09;3.50;99.90
56542;DHT22;42438;53.174;6.730;2023-03-16T04:00:42;3.60;99.90
56542;DHT22;42438;53.174;6.730;2023-03-16T04:03:12;3.30;99.90
56542;DHT22;42438;53.174;6.730;2023-03-16T04:05:43;3.60;99.90
56542;DHT22;42438;53.174;6.730;2023-03-16T04:08:14;3.40;99.90
56542;DHT22;42438;53.174;6.730;2023-03-16T04:10:44;3.20;99.90
56542;DHT22;42438;53.174;6.730;2023-03-16T04:13:16;3.50;99.90
56542;DHT22;42438;53.174;6.730;2023-03-16T04:15:47;3.90;99.90
56542;DHT22;42438;53.174;6.730;2023-03-16T04:18:17;3.30;99.90
56542;DHT22;42438;53.174;6.730;2023-03-16T04:20:48;3.30;99.90
56542;DHT22;42438;53.174;6.730;2023-03-16T04:23:19;3.00;99.90
56542;DHT22;42438;53.174;6.730;2023-03-16T04:25:50;3.60;99.90
56542;DHT22;42438;53.174;6.730;2023-03-16T04:28:21;3.40;99.90
56542;DHT22;42438;53.174;6.730;2023-03-16T04:30:52;3.50;99.90
56542;DHT22;42438;53.174;6.730;2023-03-16T04:33:26;3.30;99.90
56542;DHT22;42438;53.174;6.730;2023-03-16T04:35:57;4.00;99.90
56542;DHT22;42438;53.174;6.730;2023-03-16T04:38:28;3.70;99.90
56542;DHT22;42438;53.174;6.730;2023-03-16T04:41:00;3.40;99.90
56542;DHT22;42438;53.174;6.730;2023-03-16T04:43:31;3.30;99.90
56542;DHT22;42438;53.174;6.730;2023-03-16T04:46:03;4.30;99.90
56542;DHT22;42438;53.174;6.730;2023-03-16T04:48:36;3.20;99.90
56542;DHT22;42438;53.174;6.730;2023-03-16T04:51:06;3.60;99.90
56542;DHT22;42438;53.174;6.730;2023-03-16T04:53:37;3.40;99.90
56542;DHT22;42438;53.174;6.730;2023-03-16T04:56:08;3.40;99.90
56542;DHT22;42438;53.174;6.730;2023-03-16T04:58:38;3.30;99.90
56542;DHT22;42438;53.174;6.730;2023-03-16T05:01:09;3.20;99.90
56542;DHT22;42438;53.174;6.730;2023-03-16T05:03:40;3.60;99.90
56542;DHT22;42438;53.174;6.730;2023-03-16T05:06:12;3.60;99.90
56542;DHT22;42438;53.174;6.730;2023-03-16T05:08:42;3.30;99.90
56542;DHT22;42438;53.174;6.730;2023-03-16T05:11:13;3.20;99.90
56542;DHT22;42438;53.174;6.730;2023-03-16T05:13:44;3.30;99.90
56542;DHT22;42438;53.174;6.730;2023-03-16T05:16:14;3.40;99.90
56542;DHT22;42438;53.174;6.730;2023-03-16T05:18:45;3.40;99.90
56542;DHT22;42438;53.174;6.730;2023-03-16T05:21:16;3.60;99.90
56542;DHT22;42438;53.174;6.730;2023-03-16T05:23:47;3.20;99.90
56542;DHT22;42438;53.174;6.730;2023-03-16T05:26:18;3.10;99.90
56542;DHT22;42438;53.174;6.730;2023-03-16T05:28:48;3.40;99.90
56542;DHT22;42438;53.174;6.730;2023-03-16T05:31:19;3.40;99.90
56542;DHT22;42438;53.174;6.730;2023-03-16T05:33:49;3.30;99.90
56542;DHT22;42438;53.174;6.730;2023-03-16T05:36:21;3.20;99.90
56542;DHT22;42438;53.174;6.730;2023-03-16T05:38:51;3.50;99.90
56542;DHT22;42438;53.174;6.730;2023-03-16T05:41:22;3.50;99.90
56542;DHT22;42438;53.174;6.730;2023-03-16T05:43:53;3.30;99.90
56542;DHT22;42438;53.174;6.730;2023-03-16T05:46:23;3.80;99.90
56542;DHT22;42438;53.174;6.730;2023-03-16T05:48:54;3.40;99.90
56542;DHT22;42438;53.174;6.730;2023-03-16T05:51:25;3.30;99.90
56542;DHT22;42438;53.174;6.730;2023-03-16T05:53:55;3.60;99.90
56542;DHT22;42438;53.174;6.730;2023-03-16T05:56:27;4.00;99.90
56542;DHT22;42438;53.174;6.730;2023-03-16T05:58:58;4.00;99.90
56542;DHT22;42438;53.174;6.730;2023-03-16T06:01:29;3.50;99.90
56542;DHT22;42438;53.174;6.730;2023-03-16T06:04:00;3.60;99.90
56542;DHT22;42438;53.174;6.730;2023-03-16T06:06:32;3.70;99.90
56542;DHT22;42438;53.174;6.730;2023-03-16T06:09:03;3.30;99.90
56542;DHT22;42438;53.174;6.730;2023-03-16T06:11:34;3.50;99.90
56542;DHT22;42438;53.174;6.730;2023-03-16T06:14:04;3.60;99.90
56542;DHT22;42438;53.174;6.730;2023-03-16T06:16:35;3.70;99.90
56542;DHT22;42438;53.174;6.730;2023-03-16T06:19:06;4.10;99.90
56542;DHT22;42438;53.174;6.730;2023-03-16T06:21:36;3.70;99.90
56542;DHT22;42438;53.174;6.730;2023-03-16T06:24:07;3.90;99.90
56542;DHT22;42438;53.174;6.730;2023-03-16T06:26:38;3.70;99.90
56542;DHT22;42438;53.174;6.730;2023-03-16T06:29:09;3.90;99.90
56542;DHT22;42438;53.174;6.730;2023-03-16T06:31:39;4.00;99.90
56542;DHT22;42438;53.174;6.730;2023-03-16T06:34:10;3.80;99.90
56542;DHT22;42438;53.174;6.730;2023-03-16T06:36:41;3.80;99.90
56542;DHT22;42438;53.174;6.730;2023-03-16T06:39:11;4.30;99.90
56542;DHT22;42438;53.174;6.730;2023-03-16T06:41:43;3.80;99.90
56542;DHT22;42438;53.174;6.730;2023-03-16T06:44:14;4.40;99.90
56542;DHT22;42438;53.174;6.730;2023-03-16T06:46:45;3.90;99.90
56542;DHT22;42438;53.174;6.730;2023-03-16T06:49:15;3.70;99.90
56542;DHT22;42438;53.174;6.730;2023-03-16T06:51:46;3.80;99.90
56542;DHT22;42438;53.174;6.730;2023-03-16T06:54:17;4.00;99.90
56542;DHT22;42438;53.174;6.730;2023-03-16T06:56:47;4.00;99.90
56542;DHT22;42438;53.174;6.730;2023-03-16T06:59:18;3.90;99.90
56542;DHT22;42438;53.174;6.730;2023-03-16T07:01:49;4.20;99.90
56542;DHT22;42438;53.174;6.730;2023-03-16T07:04:20;4.50;99.90
56542;DHT22;42438;53.174;6.730;2023-03-16T07:06:51;4.20;99.90
56542;DHT22;42438;53.174;6.730;2023-03-16T07:09:22;3.80;99.90
56542;DHT22;42438;53.174;6.730;2023-03-16T07:11:52;4.20;99.90
56542;DHT22;42438;53.174;6.730;2023-03-16T07:14:23;4.70;99.90
56542;DHT22;42438;53.174;6.730;2023-03-16T07:16:55;4.20;99.90
56542;DHT22;42438;53.174;6.730;2023-03-16T07:19:27;4.20;99.90
56542;DHT22;42438;53.174;6.730;2023-03-16T07:21:57;4.70;99.90
56542;DHT22;42438;53.174;6.730;2023-03-16T07:24:28;4.50;99.90
56542;DHT22;42438;53.174;6.730;2023-03-16T07:27:00;4.30;99.90
56542;DHT22;42438;53.174;6.730;2023-03-16T07:29:31;4.30;99.90
56542;DHT22;42438;53.174;6.730;2023-03-16T07:32:02;4.40;99.90
56542;DHT22;42438;53.174;6.730;2023-03-16T07:34:33;4.50;99.90
56542;DHT22;42438;53.174;6.730;2023-03-16T07:37:04;4.50;99.90
56542;DHT22;42438;53.174;6.730;2023-03-16T07:39:36;4.30;99.90
56542;DHT22;42438;53.174;6.730;2023-03-16T07:42:07;4.20;99.90
56542;DHT22;42438;53.174;6.730;2023-03-16T07:44:38;4.50;99.90
56542;DHT22;42438;53.174;6.730;2023-03-16T07:47:11;4.50;99.90
56542;DHT22;42438;53.174;6.730;2023-03-16T07:49:42;4.80;99.90
56542;DHT22;42438;53.174;6.730;2023-03-16T07:52:13;4.80;99.90
56542;DHT22;42438;53.174;6.730;2023-03-16T07:54:44;5.00;99.90
56542;DHT22;42438;53.174;6.730;2023-03-16T07:57:14;4.80;99.90
56542;DHT22;42438;53.174;6.730;2023-03-16T07:59:45;4.80;99.90
56542;DHT22;42438;53.174;6.730;2023-03-16T08:02:18;5.10;99.90
56542;DHT22;42438;53.174;6.730;2023-03-16T08:04:49;5.00;99.90
56542;DHT22;42438;53.174;6.730;2023-03-16T08:07:19;4.60;99.90
56542;DHT22;42438;53.174;6.730;2023-03-16T08:09:51;5.50;99.90
56542;DHT22;42438;53.174;6.730;2023-03-16T08:12:22;5.20;99.90
56542;DHT22;42438;53.174;6.730;2023-03-16T08:14:53;5.30;99.90
56542;DHT22;42438;53.174;6.730;2023-03-16T08:17:24;5.30;99.90
56542;DHT22;42438;53.174;6.730;2023-03-16T08:19:54;5.30;99.90
56542;DHT22;42438;53.174;6.730;2023-03-16T08:22:25;5.60;99.90
56542;DHT22;42438;53.174;6.730;2023-03-16T08:24:56;5.90;99.90
56542;DHT22;42438;53.174;6.730;2023-03-16T08:27:26;5.50;99.90
56542;DHT22;42438;53.174;6.730;2023-03-16T08:29:58;5.60;99.90
56542;DHT22;42438;53.174;6.730;2023-03-16T08:32:34;6.00;99.90
56542;DHT22;42438;53.174;6.730;2023-03-16T08:35:07;5.70;99.90
56542;DHT22;42438;53.174;6.730;2023-03-16T08:37:38;5.20;99.90
56542;DHT22;42438;53.174;6.730;2023-03-16T08:40:10;5.60;99.90
56542;DHT22;42438;53.174;6.730;2023-03-16T08:42:43;5.40;99.90
56542;DHT22;42438;53.174;6.730;2023-03-16T08:45:15;5.40;99.90
56542;DHT22;42438;53.174;6.730;2023-03-16T08:47:46;5.20;99.90
56542;DHT22;42438;53.174;6.730;2023-03-16T08:50:17;5.50;99.90
56542;DHT22;42438;53.174;6.730;2023-03-16T08:52:49;5.40;99.90
56542;DHT22;42438;53.174;6.730;2023-03-16T08:55:20;5.80;99.90
56542;DHT22;42438;53.174;6.730;2023-03-16T08:57:50;5.80;99.90
56542;DHT22;42438;53.174;6.730;2023-03-16T09:00:21;5.50;99.90
56542;DHT22;42438;53.174;6.730;2023-03-16T09:02:52;5.30;99.90
56542;DHT22;42438;53.174;6.730;2023-03-16T09:05:24;5.70;99.90
56542;DHT22;42438;53.174;6.730;2023-03-16T09:07:55;5.40;99.90
56542;DHT22;42438;53.174;6.730;2023-03-16T09:10:26;5.50;99.90
56542;DHT22;42438;53.174;6.730;2023-03-16T09:12:57;5.70;99.90
56542;DHT22;42438;53.174;6.730;2023-03-16T09:15:27;5.50;99.90
56542;DHT22;42438;53.174;6.730;2023-03-16T09:17:58;5.70;99.90
56542;DHT22;42438;53.174;6.730;2023-03-16T09:20:30;5.80;99.90
56542;DHT22;42438;53.174;6.730;2023-03-16T09:23:01;5.90;99.90
56542;DHT22;42438;53.174;6.730;2023-03-16T09:25:33;5.80;99.90
56542;DHT22;42438;53.174;6.730;2023-03-16T09:28:04;5.90;99.90
56542;DHT22;42438;53.174;6.730;2023-03-16T09:30:35;5.50;99.90
56542;DHT22;42438;53.174;6.730;2023-03-16T09:33:06;5.60;99.90
56542;DHT22;42438;53.174;6.730;2023-03-16T09:35:37;5.70;99.90
56542;DHT22;42438;53.174;6.730;2023-03-16T09:38:08;5.60;99.90
56542;DHT22;42438;53.174;6.730;2023-03-16T09:40:39;5.50;99.90
56542;DHT22;42438;53.174;6.730;2023-03-16T09:46:31;5.70;99.90
56542;DHT22;42438;53.174;6.730;2023-03-16T09:49:04;6.00;99.90
56542;DHT22;42438;53.174;6.730;2023-03-16T09:51:44;6.00;99.90
56542;DHT22;42438;53.174;6.730;2023-03-16T09:57:04;5.90;99.90
56542;DHT22;42438;53.174;6.730;2023-03-16T09:59:44;6.60;99.90
56542;DHT22;42438;53.174;6.730;2023-03-16T10:16:44;6.90;99.90
56542;DHT22;42438;53.174;6.730;2023-03-16T10:22:21;6.90;99.90
56542;DHT22;42438;53.174;6.730;2023-03-16T10:25:18;6.90;99.90
56542;DHT22;42438;53.174;6.730;2023-03-16T10:27:51;6.90;99.90
56542;DHT22;42438;53.174;6.730;2023-03-16T10:32:56;6.70;99.90
56542;DHT22;42438;53.174;6.730;2023-03-16T10:38:03;7.10;99.90
56542;DHT22;42438;53.174;6.730;2023-03-16T10:40:38;6.70;99.90
56542;DHT22;42438;53.174;6.730;2023-03-16T10:43:12;6.60;99.90
56542;DHT22;42438;53.174;6.730;2023-03-16T10:45:44;6.70;99.90
56542;DHT22;42438;53.174;6.730;2023-03-16T10:48:18;7.00;99.90
56542;DHT22;42438;53.174;6.730;2023-03-16T10:50:53;6.70;99.90
56542;DHT22;42438;53.174;6.730;2023-03-16T10:53:30;6.70;99.90
56542;DHT22;42438;53.174;6.730;2023-03-16T10:56:24;6.70;99.90
56542;DHT22;42438;53.174;6.730;2023-03-16T10:58:54;6.70;99.90
56542;DHT22;42438;53.174;6.730;2023-03-16T11:01:27;6.50;99.90
56542;DHT22;42438;53.174;6.730;2023-03-16T11:03:58;6.60;99.90
56542;DHT22;42438;53.174;6.730;2023-03-16T11:06:31;6.80;99.90
56542;DHT22;42438;53.174;6.730;2023-03-16T11:09:06;6.40;99.90
56542;DHT22;42438;53.174;6.730;2023-03-16T11:11:38;6.50;99.90
56542;DHT22;42438;53.174;6.730;2023-03-16T11:14:12;6.40;99.90
56542;DHT22;42438;53.174;6.730;2023-03-16T11:17:03;6.50;99.90
56542;DHT22;42438;53.174;6.730;2023-03-16T11:22:22;6.40;99.90
56542;DHT22;42438;53.174;6.730;2023-03-16T11:27:50;6.40;99.90
56542;DHT22;42438;53.174;6.730;2023-03-16T11:33:13;6.30;99.90
56542;DHT22;42438;53.174;6.730;2023-03-16T11:35:51;6.60;99.90
56542;DHT22;42438;53.174;6.730;2023-03-16T11:38:36;6.30;99.90
56542;DHT22;42438;53.174;6.730;2023-03-16T11:41:22;6.40;99.90
56542;DHT22;42438;53.174;6.730;2023-03-16T11:43:59;6.70;99.90
56542;DHT22;42438;53.174;6.730;2023-03-16T11:46:39;7.00;99.90
56542;DHT22;42438;53.174;6.730;2023-03-16T11:57:48;6.70;99.90
56542;DHT22;42438;53.174;6.730;2023-03-16T12:03:24;6.80;99.90
56542;DHT22;42438;53.174;6.730;2023-03-16T12:06:18;6.90;99.90
56542;DHT22;42438;53.174;6.730;2023-03-16T12:12:15;7.00;99.90
56542;DHT22;42438;53.174;6.730;2023-03-16T12:14:58;7.20;99.90
56542;DHT22;42438;53.174;6.730;2023-03-16T12:17:33;7.10;99.90
56542;DHT22;42438;53.174;6.730;2023-03-16T12:20:17;7.10;99.90
56542;DHT22;42438;53.174;6.730;2023-03-16T12:23:09;7.40;99.90
56542;DHT22;42438;53.174;6.730;2023-03-16T12:25:44;7.40;99.90
56542;DHT22;42438;53.174;6.730;2023-03-16T12:28:25;7.50;99.90
56542;DHT22;42438;53.174;6.730;2023-03-16T12:31:06;7.60;99.90
56542;DHT22;42438;53.174;6.730;2023-03-16T12:42:44;8.00;99.90
56542;DHT22;42438;53.174;6.730;2023-03-16T12:48:38;8.30;99.90
56542;DHT22;42438;53.174;6.730;2023-03-16T12:51:10;8.30;99.90
56542;DHT22;42438;53.174;6.730;2023-03-16T12:53:52;8.30;99.90
56542;DHT22;42438;53.174;6.730;2023-03-16T12:56:29;8.50;99.90
56542;DHT22;42438;53.174;6.730;2023-03-16T12:59:01;9.00;99.90
56542;DHT22;42438;53.174;6.730;2023-03-16T13:04:15;8.70;99.90
56542;DHT22;42438;53.174;6.730;2023-03-16T13:06:51;8.70;99.90
56542;DHT22;42438;53.174;6.730;2023-03-16T13:09:30;8.70;99.90
56542;DHT22;42438;53.174;6.730;2023-03-16T13:12:02;8.60;99.90
56542;DHT22;42438;53.174;6.730;2023-03-16T13:14:41;8.60;99.90
56542;DHT22;42438;53.174;6.730;2023-03-16T13:23:08;8.60;99.90
56542;DHT22;42438;53.174;6.730;2023-03-16T13:25:40;8.80;99.90
56542;DHT22;42438;53.174;6.730;2023-03-16T13:28:13;8.70;99.90
56542;DHT22;42438;53.174;6.730;2023-03-16T13:30:48;8.80;99.90
56542;DHT22;42438;53.174;6.730;2023-03-16T13:33:26;8.90;99.90
56542;DHT22;42438;53.174;6.730;2023-03-16T13:35:58;8.80;99.90
56542;DHT22;42438;53.174;6.730;2023-03-16T13:38:29;8.80;99.90
56542;DHT22;42438;53.174;6.730;2023-03-16T13:41:03;9.00;99.90
56542;DHT22;42438;53.174;6.730;2023-03-16T13:43:38;9.10;99.90
56542;DHT22;42438;53.174;6.730;2023-03-16T13:48:50;9.10;99.90
56542;DHT22;42438;53.174;6.730;2023-03-16T13:51:21;9.30;99.90
56542;DHT22;42438;53.174;6.730;2023-03-16T13:53:53;9.60;99.90
56542;DHT22;42438;53.174;6.730;2023-03-16T13:56:25;9.80;99.90
56542;DHT22;42438;53.174;6.730;2023-03-16T13:58:58;10.00;99.90
56542;DHT22;42438;53.174;6.730;2023-03-16T14:01:31;10.00;99.90
56542;DHT22;42438;53.174;6.730;2023-03-16T14:04:08;10.00;99.90
56542;DHT22;42438;53.174;6.730;2023-03-16T14:06:51;9.90;99.90
56542;DHT22;42438;53.174;6.730;2023-03-16T14:09:27;9.80;99.90
56542;DHT22;42438;53.174;6.730;2023-03-16T14:11:58;9.70;99.90
56542;DHT22;42438;53.174;6.730;2023-03-16T14:14:35;9.80;99.90
56542;DHT22;42438;53.174;6.730;2023-03-16T14:17:11;9.80;99.90
56542;DHT22;42438;53.174;6.730;2023-03-16T14:22:19;9.70;99.90
56542;DHT22;42438;53.174;6.730;2023-03-16T14:24:54;9.60;99.90
56542;DHT22;42438;53.174;6.730;2023-03-16T14:30:21;9.50;99.90
56542;DHT22;42438;53.174;6.730;2023-03-16T14:33:18;9.50;99.90
56542;DHT22;42438;53.174;6.730;2023-03-16T14:35:56;9.40;99.90
56542;DHT22;42438;53.174;6.730;2023-03-16T14:38:32;9.40;99.90
56542;DHT22;42438;53.174;6.730;2023-03-16T14:41:09;9.40;99.90
56542;DHT22;42438;53.174;6.730;2023-03-16T14:44:10;9.40;99.90
56542;DHT22;42438;53.174;6.730;2023-03-16T14:46:38;9.40;99.90
56542;DHT22;42438;53.174;6.730;2023-03-16T14:49:23;9.40;99.90
56542;DHT22;42438;53.174;6.730;2023-03-16T14:52:00;9.40;99.90
56542;DHT22;42438;53.174;6.730;2023-03-16T14:54:32;9.40;99.90
56542;DHT22;42438;53.174;6.730;2023-03-16T14:57:04;9.40;99.90
56542;DHT22;42438;53.174;6.730;2023-03-16T14:59:35;9.40;99.90
56542;DHT22;42438;53.174;6.730;2023-03-16T15:02:14;9.50;99.90
56542;DHT22;42438;53.174;6.730;2023-03-16T15:04:46;9.60;99.90
56542;DHT22;42438;53.174;6.730;2023-03-16T15:09:51;9.80;99.90
56542;DHT22;42438;53.174;6.730;2023-03-16T15:12:23;9.90;99.90
56542;DHT22;42438;53.174;6.730;2023-03-16T15:14:55;9.90;99.90
56542;DHT22;42438;53.174;6.730;2023-03-16T15:17:45;9.90;99.90
56542;DHT22;42438;53.174;6.730;2023-03-16T15:20:19;9.90;99.90
56542;DHT22;42438;53.174;6.730;2023-03-16T15:22:51;9.90;99.90
56542;DHT22;42438;53.174;6.730;2023-03-16T15:25:30;9.80;99.90
56542;DHT22;42438;53.174;6.730;2023-03-16T15:30:39;9.70;99.90
56542;DHT22;42438;53.174;6.730;2023-03-16T15:33:11;9.60;99.90
56542;DHT22;42438;53.174;6.730;2023-03-16T15:35:42;9.60;99.90
56542;DHT22;42438;53.174;6.730;2023-03-16T15:38:23;9.60;99.90
56542;DHT22;42438;53.174;6.730;2023-03-16T15:40:54;9.50;99.90
56542;DHT22;42438;53.174;6.730;2023-03-16T15:43:27;9.60;99.90
56542;DHT22;42438;53.174;6.730;2023-03-16T15:45:58;9.60;99.90
56542;DHT22;42438;53.174;6.730;2023-03-16T15:48:33;9.60;99.90
56542;DHT22;42438;53.174;6.730;2023-03-16T15:51:07;9.50;99.90
56542;DHT22;42438;53.174;6.730;2023-03-16T15:53:45;9.60;99.90
56542;DHT22;42438;53.174;6.730;2023-03-16T15:56:20;9.50;99.90
56542;DHT22;42438;53.174;6.730;2023-03-16T15:58:52;9.50;99.90
56542;DHT22;42438;53.174;6.730;2023-03-16T16:01:24;9.50;99.90
56542;DHT22;42438;53.174;6.730;2023-03-16T16:03:55;9.50;99.90
56542;DHT22;42438;53.174;6.730;2023-03-16T16:06:26;9.50;99.90
56542;DHT22;42438;53.174;6.730;2023-03-16T16:08:58;9.50;99.90
56542;DHT22;42438;53.174;6.730;2023-03-16T16:11:28;9.50;99.90
56542;DHT22;42438;53.174;6.730;2023-03-16T16:14:00;9.50;99.90
56542;DHT22;42438;53.174;6.730;2023-03-16T16:16:31;9.50;99.90
56542;DHT22;42438;53.174;6.730;2023-03-16T16:19:04;9.50;99.90
56542;DHT22;42438;53.174;6.730;2023-03-16T16:21:35;9.40;99.90
56542;DHT22;42438;53.174;6.730;2023-03-16T16:24:06;9.40;99.90
56542;DHT22;42438;53.174;6.730;2023-03-16T16:26:40;9.30;99.90
56542;DHT22;42438;53.174;6.730;2023-03-16T16:29:26;9.30;99.90
56542;DHT22;42438;53.174;6.730;2023-03-16T16:31:59;9.30;99.90
56542;DHT22;42438;53.174;6.730;2023-03-16T16:34:30;9.30;99.90
56542;DHT22;42438;53.174;6.730;2023-03-16T16:37:01;9.20;99.90
56542;DHT22;42438;53.174;6.730;2023-03-16T16:39:31;9.20;99.90
56542;DHT22;42438;53.174;6.730;2023-03-16T16:42:03;9.10;99.90
56542;DHT22;42438;53.174;6.730;2023-03-16T16:44:34;9.10;99.90
56542;DHT22;42438;53.174;6.730;2023-03-16T16:47:17;9.10;99.90
56542;DHT22;42438;53.174;6.730;2023-03-16T16:49:48;9.10;99.90
56542;DHT22;42438;53.174;6.730;2023-03-16T16:52:20;9.10;99.90
56542;DHT22;42438;53.174;6.730;2023-03-16T16:54:51;9.00;99.90
56542;DHT22;42438;53.174;6.730;2023-03-16T16:57:22;9.00;99.90
56542;DHT22;42438;53.174;6.730;2023-03-16T16:59:53;9.00;99.90
56542;DHT22;42438;53.174;6.730;2023-03-16T17:04:54;8.80;99.90
56542;DHT22;42438;53.174;6.730;2023-03-16T17:07:26;8.80;99.90
56542;DHT22;42438;53.174;6.730;2023-03-16T17:09:57;8.80;99.90
56542;DHT22;42438;53.174;6.730;2023-03-16T17:12:27;8.70;99.90
56542;DHT22;42438;53.174;6.730;2023-03-16T17:14:59;8.60;99.90
56542;DHT22;42438;53.174;6.730;2023-03-16T17:17:29;8.60;99.90
56542;DHT22;42438;53.174;6.730;2023-03-16T17:20:00;8.50;99.90
56542;DHT22;42438;53.174;6.730;2023-03-16T17:22:31;8.40;99.90
56542;DHT22;42438;53.174;6.730;2023-03-16T17:25:01;8.30;99.90
56542;DHT22;42438;53.174;6.730;2023-03-16T17:27:34;8.20;99.90
56542;DHT22;42438;53.174;6.730;2023-03-16T17:30:21;8.10;99.90
56542;DHT22;42438;53.174;6.730;2023-03-16T17:33:03;8.00;99.90
56542;DHT22;42438;53.174;6.730;2023-03-16T17:35:36;7.90;99.90
56542;DHT22;42438;53.174;6.730;2023-03-16T17:38:22;7.80;99.90
56542;DHT22;42438;53.174;6.730;2023-03-16T17:40:54;7.70;99.90
56542;DHT22;42438;53.174;6.730;2023-03-16T17:43:26;7.60;99.90
56542;DHT22;42438;53.174;6.730;2023-03-16T17:45:58;7.50;99.90
56542;DHT22;42438;53.174;6.730;2023-03-16T17:48:30;7.40;99.90
56542;DHT22;42438;53.174;6.730;2023-03-16T17:51:01;7.30;99.90
56542;DHT22;42438;53.174;6.730;2023-03-16T17:53:31;7.30;99.90
56542;DHT22;42438;53.174;6.730;2023-03-16T17:56:15;7.20;99.90
56542;DHT22;42438;53.174;6.730;2023-03-16T17:58:48;7.20;99.90
56542;DHT22;42438;53.174;6.730;2023-03-16T18:01:25;7.10;99.90